Time;durP1;ratioP1;P1;durP2;ratioP2;P2;SDS_P1;SDS_P2;PMS_P1;PMS_P2;Temp;Humidity;BMP_temperature;BMP_pressure;BME280_temperature;BME280_humidity;BME280_pressure;Samples;Min_cycle;Max_cycle;Signal;HPM_P1;HPM_P2
2023/06/06 00:00:46;;;;;;;24.77;23.20;;;;;;;;;;5040064;28;20128;-61
2023/06/06 00:03:12;;;;;;;25.00;23.50;;;;;;;;;;5040516;28;20033;-59
2023/06/06 00:05:38;;;;;;;27.37;25.70;;;;;;;;;;5039248;28;20383;-58
2023/06/06 00:08:05;;;;;;;28.30;26.50;;;;;;;;;;5038223;28;20946;-58
2023/06/06 00:10:30;;;;;;;26.50;24.90;;;;;;;;;;5039239;28;20143;-58
2023/06/06 00:12:56;;;;;;;24.17;22.77;;;;;;;;;;5040210;28;20409;-59
2023/06/06 00:15:21;;;;;;;25.47;23.87;;;;;;;;;;5039470;28;20037;-59
2023/06/06 00:17:48;;;;;;;25.60;24.10;;;;;;;;;;5038281;28;20043;-58
2023/06/06 00:20:14;;;;;;;25.00;23.50;;;;;;;;;;5038122;28;20142;-59
2023/06/06 00:22:40;;;;;;;26.83;25.07;;;;;;;;;;5039944;28;20275;-61
2023/06/06 00:25:06;;;;;;;25.80;24.30;;;;;;;;;;5043383;28;20033;-61
2023/06/06 00:27:32;;;;;;;26.37;24.77;;;;;;;;;;5044133;28;20250;-60
2023/06/06 00:29:57;;;;;;;26.03;24.40;;;;;;;;;;5043100;28;20523;-61
2023/06/06 00:32:23;;;;;;;23.17;21.87;;;;;;;;;;5043975;28;20302;-59
2023/06/06 00:34:48;;;;;;;24.53;23.13;;;;;;;;;;5043062;28;20402;-58
2023/06/06 00:37:15;;;;;;;25.57;23.97;;;;;;;;;;5045193;28;20044;-59
2023/06/06 00:39:40;;;;;;;27.93;26.23;;;;;;;;;;5042379;28;20162;-59
2023/06/06 00:42:06;;;;;;;27.03;25.33;;;;;;;;;;5043417;28;20383;-61
2023/06/06 00:44:31;;;;;;;25.70;24.13;;;;;;;;;;5021598;28;20947;-60
2023/06/06 00:46:57;;;;;;;25.23;23.77;;;;;;;;;;5023853;28;20059;-60
2023/06/06 00:49:23;;;;;;;25.27;23.87;;;;;;;;;;5014877;28;20395;-59
2023/06/06 00:51:49;;;;;;;27.37;25.73;;;;;;;;;;5042554;28;20116;-60
2023/06/06 00:54:16;;;;;;;24.80;23.37;;;;;;;;;;5024707;28;20287;-59
2023/06/06 00:56:43;;;;;;;26.50;24.90;;;;;;;;;;5041725;28;20259;-59
2023/06/06 00:59:10;;;;;;;25.57;24.07;;;;;;;;;;5042553;28;20322;-60
2023/06/06 01:01:36;;;;;;;23.83;22.43;;;;;;;;;;5041639;28;20279;-60
2023/06/06 01:04:04;;;;;;;26.27;24.67;;;;;;;;;;5041564;28;20772;-60
2023/06/06 01:06:34;;;;;;;24.20;22.77;;;;;;;;;;5041412;28;20033;-60
2023/06/06 01:09:04;;;;;;;24.80;23.30;;;;;;;;;;5040380;28;20398;-59
2023/06/06 01:11:53;;;;;;;25.00;23.50;;;;;;;;;;5024283;28;20289;-60
2023/06/06 01:14:37;;;;;;;24.33;22.87;;;;;;;;;;5001325;28;21394;-60
2023/06/06 01:17:04;;;;;;;23.43;22.07;;;;;;;;;;5000872;28;20400;-58
2023/06/06 01:19:32;;;;;;;25.43;23.83;;;;;;;;;;5000211;28;20296;-60
2023/06/06 01:21:58;;;;;;;23.93;22.53;;;;;;;;;;4985202;28;20629;-60
2023/06/06 01:24:24;;;;;;;25.37;23.80;;;;;;;;;;5000729;28;20281;-60
2023/06/06 01:26:51;;;;;;;27.50;25.77;;;;;;;;;;4983720;28;20268;-60
2023/06/06 01:29:17;;;;;;;25.57;23.97;;;;;;;;;;4996525;28;20319;-60
2023/06/06 01:31:46;;;;;;;25.27;23.70;;;;;;;;;;5000456;28;20894;-60
2023/06/06 01:34:43;;;;;;;27.20;25.50;;;;;;;;;;4999832;28;20030;-58
2023/06/06 01:37:09;;;;;;;25.20;23.60;;;;;;;;;;4946994;28;20288;-60
2023/06/06 01:39:35;;;;;;;27.80;26.10;;;;;;;;;;4998876;28;20312;-59
2023/06/06 01:42:01;;;;;;;25.23;23.73;;;;;;;;;;5000419;28;20038;-59
2023/06/06 01:44:28;;;;;;;27.60;25.90;;;;;;;;;;4998431;28;20366;-59
2023/06/06 01:46:54;;;;;;;25.27;23.77;;;;;;;;;;4999213;28;20065;-60
2023/06/06 01:49:21;;;;;;;27.33;25.60;;;;;;;;;;4999934;28;20842;-59
2023/06/06 01:51:47;;;;;;;24.00;22.60;;;;;;;;;;5028100;28;20374;-60
2023/06/06 01:54:12;;;;;;;25.60;24.07;;;;;;;;;;5023452;28;20283;-59
2023/06/06 01:56:38;;;;;;;25.57;24.07;;;;;;;;;;5022308;28;20047;-60
2023/06/06 01:59:03;;;;;;;25.53;23.97;;;;;;;;;;5021419;28;20132;-60
2023/06/06 02:01:29;;;;;;;24.90;23.40;;;;;;;;;;5022711;28;20045;-59
2023/06/06 02:03:55;;;;;;;26.80;25.20;;;;;;;;;;5041259;28;20484;-58
2023/06/06 02:06:20;;;;;;;25.63;24.03;;;;;;;;;;5041621;28;20028;-60
2023/06/06 02:08:47;;;;;;;27.57;25.87;;;;;;;;;;5013282;28;20062;-60
2023/06/06 02:11:13;;;;;;;26.57;24.83;;;;;;;;;;5000857;28;20038;-58
2023/06/06 02:13:38;;;;;;;26.40;24.77;;;;;;;;;;5001569;28;20672;-59
2023/06/06 02:16:04;;;;;;;26.10;24.43;;;;;;;;;;5001283;28;20500;-59
2023/06/06 02:18:30;;;;;;;25.90;24.37;;;;;;;;;;4990293;28;20439;-59
2023/06/06 02:20:58;;;;;;;25.57;24.03;;;;;;;;;;5000347;28;20508;-58
2023/06/06 02:23:23;;;;;;;24.80;23.37;;;;;;;;;;5000665;28;20284;-60
2023/06/06 02:25:50;;;;;;;24.90;23.37;;;;;;;;;;5005800;28;20069;-59
2023/06/06 02:28:16;;;;;;;24.33;22.90;;;;;;;;;;5001262;28;20073;-59
2023/06/06 02:30:41;;;;;;;24.33;22.77;;;;;;;;;;5007143;28;20285;-59
2023/06/06 02:33:07;;;;;;;25.73;24.03;;;;;;;;;;5001832;28;20045;-59
2023/06/06 02:35:34;;;;;;;26.60;24.90;;;;;;;;;;5000865;28;20034;-59
2023/06/06 02:37:59;;;;;;;25.53;24.03;;;;;;;;;;5001552;28;20300;-58
2023/06/06 02:40:25;;;;;;;30.87;28.77;;;;;;;;;;4999311;28;20034;-60
2023/06/06 02:42:51;;;;;;;24.43;23.13;;;;;;;;;;5000967;28;20511;-59
2023/06/06 02:45:18;;;;;;;23.97;22.53;;;;;;;;;;5000236;28;20293;-58
2023/06/06 02:47:44;;;;;;;25.90;24.30;;;;;;;;;;4998817;28;20399;-58
2023/06/06 02:50:10;;;;;;;25.00;23.50;;;;;;;;;;5000852;28;20622;-58
2023/06/06 02:52:38;;;;;;;25.87;24.30;;;;;;;;;;5016069;28;20041;-58
2023/06/06 02:55:04;;;;;;;26.57;24.83;;;;;;;;;;4998692;28;20391;-58
2023/06/06 02:57:30;;;;;;;23.93;22.47;;;;;;;;;;5000935;28;20345;-58
2023/06/06 02:59:58;;;;;;;24.97;23.37;;;;;;;;;;5006806;28;20091;-57
2023/06/06 03:02:23;;;;;;;26.73;25.03;;;;;;;;;;5002418;28;20273;-58
2023/06/06 03:04:49;;;;;;;24.77;23.30;;;;;;;;;;5000265;28;20289;-58
2023/06/06 03:07:16;;;;;;;25.60;24.00;;;;;;;;;;5001087;28;20468;-58
2023/06/06 03:09:41;;;;;;;25.87;24.30;;;;;;;;;;5012553;28;20151;-59
2023/06/06 03:12:11;;;;;;;25.20;23.67;;;;;;;;;;5020847;28;20295;-58
2023/06/06 03:14:37;;;;;;;28.57;26.67;;;;;;;;;;5020456;28;20299;-58
2023/06/06 03:17:03;;;;;;;27.97;26.13;;;;;;;;;;5036324;28;20287;-59
2023/06/06 03:19:32;;;;;;;29.73;27.70;;;;;;;;;;5034780;28;20136;-58
2023/06/06 03:21:59;;;;;;;26.23;24.60;;;;;;;;;;5020728;28;20623;-58
2023/06/06 03:24:29;;;;;;;28.87;26.93;;;;;;;;;;5035264;28;20296;-58
2023/06/06 03:26:56;;;;;;;24.37;22.87;;;;;;;;;;5034835;28;20908;-58
2023/06/06 03:29:21;;;;;;;29.00;26.90;;;;;;;;;;5020615;28;20287;-59
2023/06/06 03:31:50;;;;;;;27.10;25.27;;;;;;;;;;5020753;28;20038;-59
2023/06/06 03:34:16;;;;;;;27.70;26.03;;;;;;;;;;5019894;28;20035;-60
2023/06/06 03:36:43;;;;;;;28.50;26.63;;;;;;;;;;5034810;28;20308;-59
2023/06/06 03:39:10;;;;;;;26.77;25.10;;;;;;;;;;5036339;28;20292;-61
2023/06/06 03:41:36;;;;;;;26.30;24.73;;;;;;;;;;5020390;28;20725;-60
2023/06/06 03:44:02;;;;;;;26.23;24.63;;;;;;;;;;5009525;28;20045;-60
2023/06/06 03:46:28;;;;;;;27.13;25.43;;;;;;;;;;5020052;28;20276;-60
2023/06/06 03:48:54;;;;;;;26.63;25.03;;;;;;;;;;5020258;28;20119;-59
2023/06/06 03:51:19;;;;;;;24.90;23.37;;;;;;;;;;5020421;28;20041;-61
2023/06/06 03:53:45;;;;;;;28.57;26.77;;;;;;;;;;5035084;28;20033;-60
2023/06/06 03:56:12;;;;;;;24.43;22.93;;;;;;;;;;5008560;28;20120;-60
2023/06/06 03:58:37;;;;;;;26.33;24.73;;;;;;;;;;5022248;28;20288;-58
2023/06/06 04:01:03;;;;;;;25.80;24.20;;;;;;;;;;5029061;28;20879;-60
2023/06/06 04:03:36;;;;;;;27.73;25.97;;;;;;;;;;5025300;28;20157;-59
2023/06/06 04:06:02;;;;;;;26.70;25.00;;;;;;;;;;5023410;28;20044;-59
2023/06/06 04:08:28;;;;;;;27.37;25.53;;;;;;;;;;5023606;28;20336;-61
2023/06/06 04:10:53;;;;;;;26.77;25.07;;;;;;;;;;5026089;28;20391;-61
2023/06/06 04:13:19;;;;;;;38.57;36.53;;;;;;;;;;5039561;28;20044;-60
2023/06/06 04:15:45;;;;;;;35.60;33.60;;;;;;;;;;5025193;28;20171;-59
2023/06/06 04:18:12;;;;;;;28.17;26.47;;;;;;;;;;5025305;28;20029;-59
2023/06/06 04:20:37;;;;;;;31.53;29.77;;;;;;;;;;5029618;28;20300;-60
2023/06/06 04:23:04;;;;;;;26.90;25.20;;;;;;;;;;5028832;28;20295;-61
2023/06/06 04:25:29;;;;;;;26.13;24.53;;;;;;;;;;5023036;28;20284;-59
2023/06/06 04:27:55;;;;;;;26.87;25.13;;;;;;;;;;5023961;28;20037;-60
2023/06/06 04:30:29;;;;;;;40.20;37.83;;;;;;;;;;5022485;28;20045;-59
2023/06/06 04:32:56;;;;;;;25.93;24.40;;;;;;;;;;5023157;28;20289;-59
2023/06/06 04:35:22;;;;;;;25.63;24.13;;;;;;;;;;5013447;28;20678;-60
2023/06/06 04:37:50;;;;;;;29.63;27.63;;;;;;;;;;5023248;28;20361;-61
2023/06/06 04:40:15;;;;;;;30.40;28.70;;;;;;;;;;5038873;28;20733;-60
2023/06/06 04:42:41;;;;;;;26.13;24.63;;;;;;;;;;5023314;28;20307;-60
2023/06/06 04:45:07;;;;;;;25.33;23.83;;;;;;;;;;5023113;28;20040;-60
2023/06/06 04:47:33;;;;;;;25.73;24.23;;;;;;;;;;5029501;28;20041;-60
2023/06/06 04:49:59;;;;;;;27.83;26.27;;;;;;;;;;5022500;28;20319;-60
2023/06/06 04:52:25;;;;;;;29.77;28.07;;;;;;;;;;5038999;28;20470;-59
2023/06/06 04:54:51;;;;;;;28.63;26.80;;;;;;;;;;5023957;28;20052;-59
2023/06/06 04:57:16;;;;;;;25.97;24.50;;;;;;;;;;5023626;28;20041;-58
2023/06/06 04:59:53;;;;;;;32.30;30.30;;;;;;;;;;5023934;28;20303;-58
2023/06/06 05:02:20;;;;;;;26.67;25.17;;;;;;;;;;5022627;28;20164;-60
2023/06/06 05:04:47;;;;;;;38.33;35.87;;;;;;;;;;5023357;28;20295;-60
2023/06/06 05:07:13;;;;;;;28.77;27.07;;;;;;;;;;5023816;28;20291;-61
2023/06/06 05:09:38;;;;;;;27.03;25.50;;;;;;;;;;5035967;28;20614;-60
2023/06/06 05:12:05;;;;;;;29.10;27.60;;;;;;;;;;5043480;28;20173;-60
2023/06/06 05:14:30;;;;;;;44.63;42.23;;;;;;;;;;5043388;28;21288;-60
2023/06/06 05:16:57;;;;;;;30.97;29.13;;;;;;;;;;5025548;28;20029;-60
2023/06/06 05:19:22;;;;;;;34.13;32.17;;;;;;;;;;5043039;28;20063;-60
2023/06/06 05:21:48;;;;;;;31.20;29.40;;;;;;;;;;5041286;28;20271;-60
2023/06/06 05:24:14;;;;;;;32.13;30.20;;;;;;;;;;5043272;28;20522;-62
2023/06/06 05:26:40;;;;;;;31.23;29.47;;;;;;;;;;5041307;28;20075;-59
2023/06/06 05:29:06;;;;;;;29.43;27.83;;;;;;;;;;5042272;28;20745;-59
2023/06/06 05:31:33;;;;;;;30.80;29.07;;;;;;;;;;5042516;28;20139;-60
2023/06/06 05:33:59;;;;;;;29.80;28.10;;;;;;;;;;5042939;28;20037;-59
2023/06/06 05:36:25;;;;;;;30.70;28.90;;;;;;;;;;5041269;28;20722;-61
2023/06/06 05:38:50;;;;;;;34.00;32.20;;;;;;;;;;5041235;28;20126;-60
2023/06/06 05:41:17;;;;;;;28.40;26.77;;;;;;;;;;5022851;28;20047;-60
2023/06/06 05:43:47;;;;;;;27.47;25.90;;;;;;;;;;5043464;28;20710;-60
2023/06/06 05:46:13;;;;;;;30.17;28.50;;;;;;;;;;5041310;28;20722;-60
2023/06/06 05:48:38;;;;;;;29.17;27.57;;;;;;;;;;5041728;28;20264;-60
2023/06/06 05:51:04;;;;;;;30.67;28.93;;;;;;;;;;5040654;28;20154;-61
2023/06/06 05:53:30;;;;;;;28.30;26.73;;;;;;;;;;5042791;28;20112;-60
2023/06/06 05:55:55;;;;;;;28.77;27.17;;;;;;;;;;5041846;28;20451;-60
2023/06/06 05:58:21;;;;;;;27.07;25.60;;;;;;;;;;5042010;28;20042;-60
2023/06/06 06:00:46;;;;;;;29.53;27.83;;;;;;;;;;5042385;28;20080;-60
2023/06/06 06:03:12;;;;;;;32.70;31.07;;;;;;;;;;5041923;28;20064;-60
2023/06/06 06:05:38;;;;;;;29.77;28.07;;;;;;;;;;5042083;28;20075;-60
2023/06/06 06:08:06;;;;;;;28.83;27.30;;;;;;;;;;5041668;28;20037;-60
2023/06/06 06:10:32;;;;;;;30.30;28.70;;;;;;;;;;5041515;28;20033;-60
2023/06/06 06:12:58;;;;;;;30.50;28.77;;;;;;;;;;5041979;28;20574;-61
2023/06/06 06:15:24;;;;;;;32.67;30.80;;;;;;;;;;5041655;28;20102;-60
2023/06/06 06:17:49;;;;;;;29.00;27.47;;;;;;;;;;5042472;28;20574;-60
2023/06/06 06:20:15;;;;;;;30.63;28.97;;;;;;;;;;5042646;28;20037;-61
2023/06/06 06:22:41;;;;;;;33.30;31.40;;;;;;;;;;5041456;28;20528;-60
2023/06/06 06:25:12;;;;;;;31.73;29.93;;;;;;;;;;5042632;28;20037;-61
2023/06/06 06:27:41;;;;;;;32.33;30.57;;;;;;;;;;5041285;28;20385;-63
2023/06/06 06:30:07;;;;;;;31.30;29.70;;;;;;;;;;5041261;28;20120;-59
2023/06/06 06:32:33;;;;;;;30.87;29.20;;;;;;;;;;5042577;28;20396;-58
2023/06/06 06:34:59;;;;;;;31.47;29.80;;;;;;;;;;5041092;28;20037;-59
2023/06/06 06:37:25;;;;;;;32.30;30.57;;;;;;;;;;5041749;28;20136;-60
2023/06/06 06:39:51;;;;;;;31.03;29.33;;;;;;;;;;5028950;28;20037;-60
2023/06/06 06:42:16;;;;;;;33.67;31.77;;;;;;;;;;5041388;28;20315;-58
2023/06/06 06:44:54;;;;;;;30.00;28.47;;;;;;;;;;5023587;28;20041;-60
2023/06/06 06:47:20;;;;;;;32.90;31.20;;;;;;;;;;5041023;28;20502;-59
2023/06/06 06:49:45;;;;;;;30.40;28.93;;;;;;;;;;5040677;28;20094;-59
2023/06/06 06:52:11;;;;;;;31.57;29.90;;;;;;;;;;5022703;28;20032;-59
2023/06/06 06:54:48;;;;;;;34.87;32.77;;;;;;;;;;5041072;28;20040;-59
2023/06/06 06:57:13;;;;;;;34.33;32.33;;;;;;;;;;5042536;28;20468;-59
2023/06/06 06:59:40;;;;;;;33.97;32.17;;;;;;;;;;5040924;28;20132;-60
2023/06/06 07:02:06;;;;;;;34.30;32.33;;;;;;;;;;5022790;28;20132;-59
2023/06/06 07:04:31;;;;;;;34.30;32.40;;;;;;;;;;5038220;28;20037;-60
2023/06/06 07:06:57;;;;;;;32.30;30.63;;;;;;;;;;5013089;28;20415;-59
2023/06/06 07:09:22;;;;;;;37.90;35.63;;;;;;;;;;5037556;28;20590;-60
2023/06/06 07:11:48;;;;;;;32.40;30.73;;;;;;;;;;5039509;28;20173;-59
2023/06/06 07:14:13;;;;;;;34.87;32.97;;;;;;;;;;5040512;28;20285;-60
2023/06/06 07:16:39;;;;;;;32.77;31.07;;;;;;;;;;5039793;28;20040;-59
2023/06/06 07:19:05;;;;;;;33.77;32.03;;;;;;;;;;5040083;28;20040;-59
2023/06/06 07:21:30;;;;;;;32.87;31.17;;;;;;;;;;5039937;28;20041;-60
2023/06/06 07:23:56;;;;;;;31.83;30.23;;;;;;;;;;5040985;28;20498;-60
2023/06/06 07:26:21;;;;;;;33.03;31.30;;;;;;;;;;5041340;28;20037;-59
2023/06/06 07:28:47;;;;;;;36.63;34.63;;;;;;;;;;5040581;28;20047;-59
2023/06/06 07:31:13;;;;;;;33.97;32.23;;;;;;;;;;5041633;28;20189;-59
2023/06/06 07:33:39;;;;;;;33.47;31.73;;;;;;;;;;5040821;28;20033;-60
2023/06/06 07:36:06;;;;;;;42.60;39.83;;;;;;;;;;5040157;28;20040;-60
2023/06/06 07:38:32;;;;;;;34.27;32.53;;;;;;;;;;5040800;28;20043;-60
2023/06/06 07:40:58;;;;;;;33.87;32.17;;;;;;;;;;5040161;28;20453;-61
2023/06/06 07:43:23;;;;;;;35.20;33.40;;;;;;;;;;5040549;28;20036;-60
2023/06/06 07:45:50;;;;;;;34.00;32.37;;;;;;;;;;5041006;28;20500;-60
2023/06/06 07:48:15;;;;;;;38.00;36.10;;;;;;;;;;5039758;28;20146;-61
2023/06/06 07:50:41;;;;;;;37.53;35.63;;;;;;;;;;5038996;28;20912;-60
2023/06/06 07:53:06;;;;;;;37.80;35.90;;;;;;;;;;5039558;28;20411;-60
2023/06/06 07:55:32;;;;;;;37.23;35.37;;;;;;;;;;5041057;28;20154;-60
2023/06/06 07:57:58;;;;;;;38.10;36.07;;;;;;;;;;5041698;28;20132;-59
2023/06/06 08:00:23;;;;;;;36.37;34.53;;;;;;;;;;5040001;28;20097;-60
2023/06/06 08:02:49;;;;;;;34.87;33.03;;;;;;;;;;5039902;28;20048;-61
2023/06/06 08:05:16;;;;;;;34.57;32.87;;;;;;;;;;5040773;28;20075;-59
2023/06/06 08:07:44;;;;;;;36.93;34.93;;;;;;;;;;5020841;28;20096;-60
2023/06/06 08:10:10;;;;;;;36.17;34.27;;;;;;;;;;5041930;28;20061;-59
2023/06/06 08:12:36;;;;;;;37.03;35.03;;;;;;;;;;5022577;28;20103;-60
2023/06/06 08:15:03;;;;;;;35.13;33.30;;;;;;;;;;5039642;28;20037;-60
2023/06/06 08:17:28;;;;;;;33.53;31.90;;;;;;;;;;5040507;28;20471;-60
2023/06/06 08:19:54;;;;;;;36.40;34.43;;;;;;;;;;5040790;28;20107;-60
2023/06/06 08:22:20;;;;;;;36.53;34.67;;;;;;;;;;5021723;28;20041;-60
2023/06/06 08:24:45;;;;;;;34.47;32.77;;;;;;;;;;5040419;28;20045;-61
2023/06/06 08:27:10;;;;;;;38.53;36.50;;;;;;;;;;5041447;28;20497;-60
2023/06/06 08:29:36;;;;;;;40.10;37.90;;;;;;;;;;5038522;28;20476;-60
2023/06/06 08:32:02;;;;;;;38.23;36.23;;;;;;;;;;5039844;28;20148;-59
2023/06/06 08:34:28;;;;;;;36.80;34.90;;;;;;;;;;5039705;28;20033;-60
2023/06/06 08:36:53;;;;;;;37.60;35.70;;;;;;;;;;5021618;28;20037;-60
2023/06/06 08:39:21;;;;;;;37.73;35.73;;;;;;;;;;5039615;28;20048;-60
2023/06/06 08:41:50;;;;;;;39.87;37.77;;;;;;;;;;5040353;28;20124;-61
2023/06/06 08:44:18;;;;;;;38.77;36.67;;;;;;;;;;5039150;28;20562;-60
2023/06/06 08:46:44;;;;;;;36.00;34.30;;;;;;;;;;5043293;28;20119;-60
2023/06/06 08:49:10;;;;;;;39.57;37.53;;;;;;;;;;5043837;28;20041;-60
2023/06/06 08:51:36;;;;;;;54.20;50.10;;;;;;;;;;5040216;28;20612;-60
2023/06/06 08:54:01;;;;;;;38.60;36.70;;;;;;;;;;5041638;28;20159;-58
2023/06/06 08:56:27;;;;;;;37.07;35.33;;;;;;;;;;5042066;28;20124;-58
2023/06/06 08:58:52;;;;;;;39.10;37.20;;;;;;;;;;5042885;28;20041;-60
2023/06/06 09:01:18;;;;;;;39.90;38.00;;;;;;;;;;5042953;28;20028;-60
2023/06/06 09:03:44;;;;;;;38.93;37.10;;;;;;;;;;5042290;28;20063;-61
2023/06/06 09:06:12;;;;;;;38.50;36.67;;;;;;;;;;5041870;28;20036;-61
2023/06/06 09:08:39;;;;;;;39.77;37.87;;;;;;;;;;5041971;28;20045;-60
2023/06/06 09:11:04;;;;;;;40.57;38.50;;;;;;;;;;5042543;28;20033;-60
2023/06/06 09:13:29;;;;;;;42.17;40.03;;;;;;;;;;5042133;28;20037;-60
2023/06/06 09:15:55;;;;;;;38.50;36.70;;;;;;;;;;5041624;28;20177;-61
2023/06/06 09:18:21;;;;;;;41.00;38.87;;;;;;;;;;5026313;28;20033;-60
2023/06/06 09:20:53;;;;;;;41.63;39.50;;;;;;;;;;5042551;28;20052;-60
2023/06/06 09:23:18;;;;;;;41.40;39.30;;;;;;;;;;5042528;28;20117;-61
2023/06/06 09:25:50;;;;;;;41.47;39.47;;;;;;;;;;5023092;28;20602;-59
2023/06/06 09:28:15;;;;;;;42.20;40.13;;;;;;;;;;5042508;28;20084;-60
2023/06/06 09:30:41;;;;;;;42.63;40.60;;;;;;;;;;5041839;28;20032;-61
2023/06/06 09:33:06;;;;;;;40.37;38.37;;;;;;;;;;5042354;28;20029;-60
2023/06/06 09:35:32;;;;;;;45.70;43.20;;;;;;;;;;5041800;28;20021;-60
2023/06/06 09:38:03;;;;;;;41.63;39.63;;;;;;;;;;5040878;28;20055;-60
2023/06/06 09:40:29;;;;;;;41.60;39.60;;;;;;;;;;5041392;28;20037;-59
2023/06/06 09:42:56;;;;;;;45.27;42.90;;;;;;;;;;5042210;28;20048;-59
2023/06/06 09:45:21;;;;;;;43.70;41.57;;;;;;;;;;5041740;28;20373;-59
2023/06/06 09:47:48;;;;;;;42.67;40.57;;;;;;;;;;5042550;28;20121;-58
2023/06/06 09:50:14;;;;;;;42.70;40.43;;;;;;;;;;5022458;28;20041;-59
2023/06/06 09:52:40;;;;;;;40.27;38.43;;;;;;;;;;5041988;28;20071;-60
2023/06/06 09:55:06;;;;;;;43.07;40.77;;;;;;;;;;5041761;28;20116;-59
2023/06/06 09:57:34;;;;;;;38.07;36.13;;;;;;;;;;5042114;28;20563;-60
2023/06/06 10:00:07;;;;;;;42.17;39.77;;;;;;;;;;5041357;28;20033;-60
2023/06/06 10:02:47;;;;;;;39.83;37.63;;;;;;;;;;5042227;28;20036;-60
2023/06/06 10:05:17;;;;;;;38.13;36.23;;;;;;;;;;5022734;28;20424;-59
2023/06/06 10:07:45;;;;;;;36.93;35.07;;;;;;;;;;5024413;28;20043;-60
2023/06/06 10:10:14;;;;;;;36.10;34.20;;;;;;;;;;5041580;28;20049;-61
2023/06/06 10:12:40;;;;;;;34.97;33.13;;;;;;;;;;5041185;28;20102;-60
2023/06/06 10:15:08;;;;;;;33.67;31.93;;;;;;;;;;5041378;28;20028;-59
2023/06/06 10:17:40;;;;;;;33.90;32.00;;;;;;;;;;5057017;28;20360;-59
2023/06/06 10:20:06;;;;;;;33.73;31.87;;;;;;;;;;5040875;28;20036;-59
2023/06/06 10:22:36;;;;;;;32.93;31.13;;;;;;;;;;5039612;28;20500;-61
2023/06/06 10:25:03;;;;;;;32.87;30.67;;;;;;;;;;5039307;28;20029;-60
2023/06/06 10:27:30;;;;;;;29.93;28.33;;;;;;;;;;5040350;28;20033;-59
2023/06/06 10:30:02;;;;;;;29.20;27.63;;;;;;;;;;5038677;28;20039;-59
2023/06/06 10:32:48;;;;;;;32.57;30.67;;;;;;;;;;5041050;28;20041;-60
2023/06/06 10:35:14;;;;;;;31.43;29.60;;;;;;;;;;5040820;28;20093;-61
2023/06/06 10:37:41;;;;;;;32.77;30.87;;;;;;;;;;5040243;28;20120;-61
2023/06/06 10:40:14;;;;;;;31.83;29.90;;;;;;;;;;5040328;28;20495;-61
2023/06/06 10:42:40;;;;;;;28.67;27.10;;;;;;;;;;5039893;28;20840;-61
2023/06/06 10:45:07;;;;;;;34.23;32.43;;;;;;;;;;5040266;28;20297;-58
2023/06/06 10:47:35;;;;;;;30.80;28.83;;;;;;;;;;5040338;28;20276;-58
2023/06/06 10:50:13;;;;;;;31.37;29.47;;;;;;;;;;5041632;28;20291;-60
2023/06/06 10:52:53;;;;;;;28.37;26.67;;;;;;;;;;5040444;28;20615;-59
2023/06/06 10:55:22;;;;;;;30.50;28.60;;;;;;;;;;5040784;28;20275;-59
2023/06/06 10:57:48;;;;;;;27.57;26.07;;;;;;;;;;5042223;28;20390;-62
2023/06/06 11:00:15;;;;;;;28.73;27.20;;;;;;;;;;5040857;28;20303;-62
2023/06/06 11:02:41;;;;;;;27.27;25.77;;;;;;;;;;5024525;28;20287;-61
2023/06/06 11:05:07;;;;;;;29.53;27.90;;;;;;;;;;5029762;28;20290;-61
2023/06/06 11:07:33;;;;;;;29.60;27.97;;;;;;;;;;5039216;28;20441;-61
2023/06/06 11:09:58;;;;;;;27.30;25.80;;;;;;;;;;5041137;28;20053;-60
2023/06/06 11:12:27;;;;;;;27.07;25.70;;;;;;;;;;5041514;28;20037;-60
2023/06/06 11:14:58;;;;;;;31.70;29.70;;;;;;;;;;5039842;28;20457;-60
2023/06/06 11:17:27;;;;;;;31.53;29.67;;;;;;;;;;5038399;28;20025;-59
2023/06/06 11:19:54;;;;;;;31.00;29.37;;;;;;;;;;5041175;28;20475;-60
2023/06/06 11:22:22;;;;;;;32.63;30.73;;;;;;;;;;5041240;28;20029;-59
2023/06/06 11:24:47;;;;;;;32.23;30.50;;;;;;;;;;5042075;28;20021;-60
2023/06/06 11:27:14;;;;;;;30.30;28.77;;;;;;;;;;5041537;28;20499;-59
2023/06/06 11:29:40;;;;;;;37.07;34.93;;;;;;;;;;5040416;28;20055;-60
2023/06/06 11:32:09;;;;;;;32.50;30.80;;;;;;;;;;5038382;28;20618;-60
2023/06/06 11:34:35;;;;;;;37.27;35.10;;;;;;;;;;5040733;28;20431;-60
2023/06/06 11:37:00;;;;;;;31.37;29.83;;;;;;;;;;5039235;28;20028;-60
2023/06/06 11:39:27;;;;;;;34.37;32.47;;;;;;;;;;5040283;28;20041;-62
2023/06/06 11:41:52;;;;;;;33.00;31.37;;;;;;;;;;5021505;28;20037;-60
2023/06/06 11:44:18;;;;;;;36.60;34.50;;;;;;;;;;5005744;28;20623;-59
2023/06/06 11:46:44;;;;;;;34.97;33.13;;;;;;;;;;5039164;28;20041;-61
2023/06/06 11:49:10;;;;;;;35.37;33.40;;;;;;;;;;5040555;28;20973;-61
2023/06/06 11:51:36;;;;;;;33.37;31.63;;;;;;;;;;5022675;28;20028;-61
2023/06/06 11:54:17;;;;;;;35.17;33.33;;;;;;;;;;5040982;28;20047;-61
2023/06/06 11:56:43;;;;;;;38.27;36.13;;;;;;;;;;5038673;28;20585;-63
2023/06/06 11:59:11;;;;;;;38.30;36.20;;;;;;;;;;5035182;28;20040;-62
2023/06/06 12:01:36;;;;;;;35.43;33.63;;;;;;;;;;5035908;28;20338;-64
2023/06/06 12:04:04;;;;;;;35.37;33.57;;;;;;;;;;5022323;28;20025;-61
2023/06/06 12:06:30;;;;;;;36.87;34.97;;;;;;;;;;5039882;28;20026;-61
2023/06/06 12:08:56;;;;;;;35.43;33.57;;;;;;;;;;5039352;28;20076;-60
2023/06/06 12:11:26;;;;;;;36.97;35.17;;;;;;;;;;5041634;28;20048;-60
2023/06/06 12:13:52;;;;;;;44.73;42.33;;;;;;;;;;5038982;28;20504;-60
2023/06/06 12:16:24;;;;;;;38.03;36.03;;;;;;;;;;5037241;28;20033;-61
2023/06/06 12:18:50;;;;;;;38.27;36.20;;;;;;;;;;5019297;28;20091;-61
2023/06/06 12:21:16;;;;;;;36.97;34.97;;;;;;;;;;5042609;28;20036;-60
2023/06/06 12:23:46;;;;;;;37.70;35.87;;;;;;;;;;5042792;28;20067;-59
2023/06/06 12:26:12;;;;;;;38.13;36.17;;;;;;;;;;5043845;28;20514;-59
2023/06/06 12:28:56;;;;;;;37.87;35.87;;;;;;;;;;5044435;28;20128;-60
2023/06/06 12:31:22;;;;;;;36.35;34.53;;;;;;;;;;5043707;28;20454;-60
2023/06/06 12:33:48;;;;;;;37.40;35.50;;;;;;;;;;5043469;28;20630;-66
2023/06/06 12:36:18;;;;;;;46.03;43.57;;;;;;;;;;5021644;28;20033;-59
2023/06/06 12:38:44;;;;;;;37.93;36.00;;;;;;;;;;5040858;28;20053;-60
2023/06/06 12:41:09;;;;;;;44.53;42.23;;;;;;;;;;5023166;28;20105;-60
2023/06/06 12:43:35;;;;;;;42.63;40.23;;;;;;;;;;5019402;28;20099;-61
2023/06/06 12:46:00;;;;;;;47.83;45.53;;;;;;;;;;5039979;28;20037;-61
2023/06/06 12:48:26;;;;;;;39.57;37.60;;;;;;;;;;5041002;28;20115;-59
2023/06/06 12:50:51;;;;;;;38.77;36.77;;;;;;;;;;5040569;28;20542;-59
2023/06/06 12:53:19;;;;;;;36.53;34.73;;;;;;;;;;5040162;28;20068;-59
2023/06/06 12:55:46;;;;;;;38.73;36.77;;;;;;;;;;5041061;28;20171;-60
2023/06/06 12:58:11;;;;;;;36.60;34.70;;;;;;;;;;5040930;28;20040;-60
2023/06/06 13:00:38;;;;;;;41.00;38.90;;;;;;;;;;5039662;28;20052;-59
2023/06/06 13:03:05;;;;;;;39.53;37.40;;;;;;;;;;5041821;28;20654;-60
2023/06/06 13:05:31;;;;;;;36.87;35.03;;;;;;;;;;5041657;28;20588;-61
2023/06/06 13:07:57;;;;;;;36.87;34.97;;;;;;;;;;5042448;28;20082;-62
2023/06/06 13:10:22;;;;;;;38.47;36.47;;;;;;;;;;5041642;28;20068;-61
2023/06/06 13:12:49;;;;;;;36.93;35.00;;;;;;;;;;5043641;28;20068;-61
2023/06/06 13:15:15;;;;;;;36.47;34.53;;;;;;;;;;5008159;28;20037;-61
2023/06/06 13:17:40;;;;;;;43.20;41.10;;;;;;;;;;5045346;28;20036;-60
2023/06/06 13:20:06;;;;;;;37.53;35.50;;;;;;;;;;5042827;28;20404;-60
2023/06/06 13:22:31;;;;;;;35.10;33.30;;;;;;;;;;5043109;28;20492;-60
2023/06/06 13:24:57;;;;;;;34.43;32.53;;;;;;;;;;5041186;28;20592;-61
2023/06/06 13:27:23;;;;;;;34.23;32.47;;;;;;;;;;5043029;28;20033;-59
2023/06/06 13:29:48;;;;;;;36.23;34.20;;;;;;;;;;5040575;28;20036;-61
2023/06/06 13:32:14;;;;;;;34.10;32.37;;;;;;;;;;5040457;28;20040;-61
2023/06/06 13:34:39;;;;;;;42.47;40.07;;;;;;;;;;5041372;28;20036;-62
2023/06/06 13:37:05;;;;;;;33.37;31.57;;;;;;;;;;5041758;28;20025;-62
2023/06/06 13:39:30;;;;;;;37.20;35.10;;;;;;;;;;5043821;28;20064;-61
2023/06/06 13:41:56;;;;;;;35.53;33.73;;;;;;;;;;5041111;28;20037;-62
2023/06/06 13:44:22;;;;;;;40.00;37.57;;;;;;;;;;5042199;28;20120;-61
2023/06/06 13:46:48;;;;;;;35.67;33.77;;;;;;;;;;5041214;28;20033;-62
2023/06/06 13:49:16;;;;;;;35.17;33.40;;;;;;;;;;5038027;28;20055;-61
2023/06/06 13:51:45;;;;;;;34.93;33.13;;;;;;;;;;5041483;28;20037;-62
2023/06/06 13:54:11;;;;;;;36.80;34.90;;;;;;;;;;5042125;28;20045;-61
2023/06/06 13:56:40;;;;;;;35.37;33.47;;;;;;;;;;5044855;28;20037;-62
2023/06/06 13:59:06;;;;;;;38.13;36.03;;;;;;;;;;5039525;28;20111;-61
2023/06/06 14:01:31;;;;;;;35.97;33.97;;;;;;;;;;5040702;28;20029;-61
2023/06/06 14:03:57;;;;;;;35.10;33.20;;;;;;;;;;5041768;28;20029;-67
2023/06/06 14:06:22;;;;;;;32.83;31.03;;;;;;;;;;5041076;28;20620;-62
2023/06/06 14:08:48;;;;;;;31.33;29.73;;;;;;;;;;5041070;28;20065;-64
2023/06/06 14:11:14;;;;;;;33.77;31.77;;;;;;;;;;5040217;28;20395;-63
2023/06/06 14:13:39;;;;;;;31.67;30.03;;;;;;;;;;5042101;28;20040;-62